createdAt,value
2022-10-22T00:00:50.545Z,3.40
2022-10-22T00:03:17.778Z,3.30
2022-10-22T00:05:44.983Z,2.83
2022-10-22T00:08:12.262Z,3.05
2022-10-22T00:10:39.481Z,2.75
2022-10-22T00:13:06.902Z,3.05
2022-10-22T00:15:34.153Z,3.00
2022-10-22T00:18:01.395Z,3.35
2022-10-22T00:20:28.751Z,3.72
2022-10-22T00:22:56.111Z,3.30
2022-10-22T00:25:23.463Z,3.10
2022-10-22T00:27:50.708Z,3.10
2022-10-22T00:30:17.999Z,2.63
2022-10-22T00:32:45.189Z,2.80
2022-10-22T00:35:12.456Z,3.45
2022-10-22T00:37:39.649Z,3.70
2022-10-22T00:40:07.295Z,3.27
2022-10-22T00:42:34.522Z,3.28
2022-10-22T00:45:11.045Z,3.05
2022-10-22T00:47:40.246Z,3.38
2022-10-22T00:50:10.265Z,3.50
2022-10-22T00:52:37.670Z,3.67
2022-10-22T00:55:05.735Z,4.05
2022-10-22T00:57:33.257Z,3.20
2022-10-22T01:00:00.540Z,3.60
2022-10-22T01:02:27.972Z,4.15
2022-10-22T01:04:55.244Z,3.33
2022-10-22T01:07:24.839Z,3.78
2022-10-22T01:10:03.388Z,4.30
2022-10-22T01:12:51.950Z,4.32
2022-10-22T01:15:32.462Z,3.75
2022-10-22T01:18:15.185Z,3.57
2022-10-22T01:20:42.425Z,3.95
2022-10-22T01:23:28.350Z,3.63
2022-10-22T01:26:14.482Z,3.78
2022-10-22T01:28:57.092Z,4.43
2022-10-22T01:31:26.277Z,4.40
2022-10-22T01:33:55.199Z,3.65
2022-10-22T01:36:22.783Z,4.47
2022-10-22T01:38:50.336Z,3.60
2022-10-22T01:41:17.871Z,3.83
2022-10-22T01:43:45.112Z,3.70
2022-10-22T01:46:13.125Z,4.40
2022-10-22T01:48:40.346Z,3.67
2022-10-22T01:51:19.200Z,3.88
2022-10-22T01:54:08.229Z,3.65
2022-10-22T01:56:54.635Z,4.60
2022-10-22T01:59:22.106Z,3.95
2022-10-22T02:01:49.580Z,3.55
2022-10-22T02:04:31.236Z,3.58
2022-10-22T02:07:01.151Z,3.90
2022-10-22T02:09:30.030Z,3.00
2022-10-22T02:12:00.768Z,3.78
2022-10-22T02:14:29.445Z,3.70
2022-10-22T02:16:57.503Z,3.78
2022-10-22T02:19:29.328Z,3.67
2022-10-22T02:21:56.665Z,3.60
2022-10-22T02:24:24.858Z,4.63
2022-10-22T02:26:58.316Z,3.63
2022-10-22T02:29:28.529Z,3.60
2022-10-22T02:31:57.281Z,3.70
2022-10-22T02:34:26.676Z,4.20
2022-10-22T02:36:54.713Z,4.22
2022-10-22T02:39:22.540Z,3.92
2022-10-22T02:41:49.811Z,3.97
2022-10-22T02:44:20.980Z,3.67
2022-10-22T02:46:48.256Z,4.47
2022-10-22T02:49:15.520Z,3.75
2022-10-22T02:51:42.775Z,3.53
2022-10-22T02:54:10.003Z,3.95
2022-10-22T02:56:37.320Z,4.20
2022-10-22T02:59:04.830Z,3.97
2022-10-22T03:01:32.006Z,3.33
2022-10-22T03:03:59.420Z,3.55
2022-10-22T03:06:26.741Z,3.53
2022-10-22T03:08:54.410Z,3.53
2022-10-22T03:11:22.025Z,4.10
2022-10-22T03:13:49.273Z,3.72
2022-10-22T03:16:16.505Z,3.17
2022-10-22T03:18:43.726Z,3.45
2022-10-22T03:21:14.233Z,3.63
2022-10-22T03:23:43.122Z,3.70
2022-10-22T03:26:10.993Z,4.03
2022-10-22T03:28:38.560Z,3.40
2022-10-22T03:31:05.868Z,3.58
2022-10-22T03:33:33.174Z,3.38
2022-10-22T03:36:01.296Z,4.07
2022-10-22T03:38:29.481Z,4.30
2022-10-22T03:40:56.756Z,3.75
2022-10-22T03:43:24.102Z,3.65
2022-10-22T03:45:51.288Z,3.70
2022-10-22T03:48:18.552Z,4.03
2022-10-22T03:50:45.773Z,4.07
2022-10-22T03:53:13.083Z,3.95
2022-10-22T03:55:41.731Z,3.88
2022-10-22T03:58:08.965Z,3.97
2022-10-22T04:00:36.576Z,3.80
2022-10-22T04:03:04.005Z,3.97
2022-10-22T04:05:33.592Z,3.60
2022-10-22T04:08:01.027Z,3.95
2022-10-22T04:10:28.276Z,3.47
2022-10-22T04:12:55.482Z,3.67
2022-10-22T04:15:22.813Z,3.50
2022-10-22T04:17:50.060Z,3.80
2022-10-22T04:20:17.369Z,4.00
2022-10-22T04:22:44.642Z,3.42
2022-10-22T04:25:11.858Z,3.40
2022-10-22T04:27:39.602Z,3.45
2022-10-22T04:30:07.367Z,3.03
2022-10-22T04:32:34.654Z,3.47
2022-10-22T04:35:01.910Z,3.55
2022-10-22T04:37:29.242Z,3.67
2022-10-22T04:39:58.149Z,3.15
2022-10-22T04:42:25.815Z,3.80
2022-10-22T04:44:53.075Z,3.55
2022-10-22T04:47:20.322Z,3.20
2022-10-22T04:49:47.557Z,3.50
2022-10-22T04:52:14.823Z,2.85
2022-10-22T04:54:42.027Z,3.13
2022-10-22T04:57:09.359Z,3.38
2022-10-22T04:59:36.606Z,2.95
2022-10-22T05:02:04.020Z,3.07
2022-10-22T05:04:31.409Z,3.75
2022-10-22T05:06:58.744Z,2.47
2022-10-22T05:09:26.090Z,3.25
2022-10-22T05:11:53.613Z,2.90
2022-10-22T05:14:22.352Z,3.10
2022-10-22T05:16:50.343Z,3.38
2022-10-22T05:19:25.677Z,3.08
2022-10-22T05:21:54.334Z,3.55
2022-10-22T05:24:21.773Z,3.38
2022-10-22T05:26:58.578Z,2.40
2022-10-22T05:29:26.039Z,3.10
2022-10-22T05:31:53.502Z,2.75
2022-10-22T05:34:20.723Z,3.30
2022-10-22T05:36:47.961Z,3.00
2022-10-22T05:39:15.308Z,2.70
2022-10-22T05:41:42.518Z,2.70
2022-10-22T05:44:12.161Z,2.75
2022-10-22T05:46:39.539Z,2.83
2022-10-22T05:49:07.503Z,2.97
2022-10-22T05:51:35.937Z,3.33
2022-10-22T05:54:04.861Z,3.10
2022-10-22T05:56:32.930Z,2.92
2022-10-22T05:59:00.711Z,2.80
2022-10-22T06:01:29.206Z,2.97
2022-10-22T06:03:58.123Z,2.60
2022-10-22T06:06:30.920Z,3.08
2022-10-22T06:09:01.752Z,2.83
2022-10-22T06:11:32.496Z,3.03
2022-10-22T06:14:02.333Z,3.13
2022-10-22T06:16:30.395Z,2.80
2022-10-22T06:19:00.792Z,2.95
2022-10-22T06:21:28.452Z,3.47
2022-10-22T06:23:59.629Z,3.70
2022-10-22T06:26:27.373Z,3.28
2022-10-22T06:28:55.977Z,3.57
2022-10-22T06:31:23.585Z,3.15
2022-10-22T06:33:50.885Z,2.97
2022-10-22T06:36:23.279Z,3.20
2022-10-22T06:38:57.099Z,2.75
2022-10-22T06:41:28.545Z,2.93
2022-10-22T06:43:57.611Z,3.17
2022-10-22T06:46:25.873Z,2.92
2022-10-22T06:49:00.914Z,3.30
2022-10-22T06:51:28.700Z,3.55
2022-10-22T06:53:56.886Z,3.57
2022-10-22T06:56:25.367Z,2.85
2022-10-22T06:58:53.615Z,3.00
2022-10-22T07:01:22.982Z,3.45
2022-10-22T07:03:53.656Z,2.95
2022-10-22T07:06:21.728Z,2.97
2022-10-22T07:08:49.171Z,2.60
2022-10-22T07:11:17.835Z,2.70
2022-10-22T07:13:45.476Z,3.20
2022-10-22T07:16:13.218Z,2.80
2022-10-22T07:18:41.126Z,3.03
2022-10-22T07:21:09.059Z,2.88
2022-10-22T07:23:36.662Z,3.38
2022-10-22T07:26:04.664Z,2.65
2022-10-22T07:28:32.616Z,2.63
2022-10-22T07:31:00.824Z,2.70
2022-10-22T07:33:28.561Z,3.20
2022-10-22T07:35:59.990Z,2.45
2022-10-22T07:38:27.495Z,3.00
2022-10-22T07:40:54.883Z,2.78
2022-10-22T07:43:23.051Z,3.20
2022-10-22T07:45:50.317Z,4.88
2022-10-22T07:48:17.961Z,3.13
2022-10-22T07:53:12.479Z,2.67
2022-10-22T07:55:39.705Z,2.83
2022-10-22T07:58:07.000Z,2.65
2022-10-22T08:00:34.285Z,2.47
2022-10-22T08:03:01.598Z,2.53
2022-10-22T08:05:28.832Z,2.35
2022-10-22T08:07:56.037Z,3.80
2022-10-22T08:10:23.425Z,2.03
2022-10-22T08:12:50.799Z,2.85
2022-10-22T08:15:18.090Z,3.22
2022-10-22T08:17:45.330Z,2.35
2022-10-22T08:20:12.652Z,2.20
2022-10-22T08:22:39.934Z,2.47
2022-10-22T08:25:07.454Z,2.40
2022-10-22T08:27:34.898Z,2.85
2022-10-22T08:30:02.168Z,2.30
2022-10-22T08:32:29.485Z,2.10
2022-10-22T08:34:56.799Z,3.22
2022-10-22T08:37:24.361Z,2.15
2022-10-22T08:39:51.606Z,2.03
2022-10-22T08:42:28.255Z,2.42
2022-10-22T08:45:12.866Z,2.57
2022-10-22T08:48:02.099Z,2.15
2022-10-22T08:50:36.320Z,2.45
2022-10-22T08:53:05.451Z,2.78
2022-10-22T08:55:37.133Z,2.42
2022-10-22T08:58:28.076Z,2.47
2022-10-22T09:01:03.496Z,2.95
2022-10-22T09:03:36.894Z,2.55
2022-10-22T09:06:13.537Z,2.15
2022-10-22T09:08:42.794Z,2.20
2022-10-22T09:11:10.123Z,2.13
2022-10-22T09:13:37.623Z,2.42
2022-10-22T09:16:23.077Z,2.83
2022-10-22T09:19:09.343Z,2.10
2022-10-22T09:21:47.225Z,2.83
2022-10-22T09:24:17.770Z,2.00
2022-10-22T09:26:45.036Z,1.33
2022-10-22T09:29:20.417Z,3.00
2022-10-22T09:31:47.835Z,1.67
2022-10-22T09:34:24.212Z,2.35
2022-10-22T09:37:01.757Z,2.20
2022-10-22T09:39:32.632Z,1.83
2022-10-22T09:42:00.326Z,1.77
2022-10-22T09:44:27.625Z,2.42
2022-10-22T09:46:54.923Z,2.50
2022-10-22T09:49:23.576Z,1.70
2022-10-22T09:52:00.984Z,2.08
2022-10-22T09:54:34.258Z,2.30
2022-10-22T09:57:06.357Z,2.33
2022-10-22T09:59:37.644Z,1.75
2022-10-22T10:02:26.581Z,1.80
2022-10-22T10:05:03.419Z,1.92
2022-10-22T10:07:31.962Z,2.72
2022-10-22T10:09:59.270Z,2.13
2022-10-22T10:12:35.853Z,2.00
2022-10-22T10:15:09.423Z,1.90
2022-10-22T10:17:55.760Z,2.15
2022-10-22T10:20:28.837Z,1.85
2022-10-22T10:23:03.551Z,1.35
2022-10-22T10:25:54.342Z,1.65
2022-10-22T10:28:24.404Z,2.53
2022-10-22T10:31:06.098Z,2.63
2022-10-22T10:33:33.343Z,1.80
2022-10-22T10:36:04.585Z,2.17
2022-10-22T10:38:55.946Z,1.90
2022-10-22T10:41:32.954Z,3.37
2022-10-22T10:44:00.235Z,2.53
2022-10-22T10:46:44.321Z,2.03
2022-10-22T10:49:17.501Z,2.65
2022-10-22T10:51:44.813Z,1.50
2022-10-22T10:54:15.116Z,1.67
2022-10-22T10:56:55.087Z,1.58
2022-10-22T10:59:25.748Z,1.55
2022-10-22T11:01:59.000Z,1.65
2022-10-22T11:04:44.964Z,1.70
2022-10-22T11:07:23.421Z,1.63
2022-10-22T11:10:10.028Z,2.28
2022-10-22T11:12:40.209Z,2.05
2022-10-22T11:15:10.087Z,1.50
2022-10-22T11:17:39.932Z,2.10
2022-10-22T11:20:19.246Z,1.83
2022-10-22T11:23:17.020Z,1.70
2022-10-22T11:25:44.173Z,1.52
2022-10-22T11:30:44.092Z,1.20
2022-10-22T11:33:13.652Z,1.53
2022-10-22T11:35:45.698Z,2.13
2022-10-22T11:38:15.206Z,2.15
2022-10-22T11:40:51.329Z,2.28
2022-10-22T11:43:29.515Z,2.28
2022-10-22T11:46:23.295Z,1.87
2022-10-22T11:49:05.086Z,2.08
2022-10-22T11:51:36.296Z,1.77
2022-10-22T11:54:23.499Z,1.50
2022-10-22T11:56:53.479Z,2.05
2022-10-22T11:59:40.838Z,1.80
2022-10-22T12:02:26.917Z,1.83
2022-10-22T12:04:56.083Z,1.52
2022-10-22T12:07:29.134Z,1.98
2022-10-22T12:09:56.472Z,2.58
2022-10-22T12:12:23.785Z,2.03
2022-10-22T12:14:58.351Z,2.17
2022-10-22T12:17:26.080Z,2.88
2022-10-22T12:20:08.127Z,2.60
2022-10-22T12:22:37.737Z,2.47
2022-10-22T12:25:18.583Z,2.43
2022-10-22T12:27:51.658Z,2.35
2022-10-22T12:30:18.995Z,2.08
2022-10-22T12:32:46.620Z,2.83
2022-10-22T12:35:18.243Z,2.22
2022-10-22T12:37:45.844Z,2.33
2022-10-22T12:40:21.656Z,2.45
2022-10-22T12:42:53.012Z,1.77
2022-10-22T12:45:20.557Z,2.03
2022-10-22T12:47:52.109Z,2.15
2022-10-22T12:50:21.203Z,2.67
2022-10-22T12:52:49.091Z,2.53
2022-10-22T12:55:20.564Z,2.00
2022-10-22T12:57:48.905Z,2.38
2022-10-22T13:00:23.785Z,2.55
2022-10-22T13:02:51.159Z,2.40
2022-10-22T13:05:22.957Z,2.33
2022-10-22T13:07:51.570Z,2.45
2022-10-22T13:10:32.060Z,2.58
2022-10-22T13:12:59.860Z,2.35
2022-10-22T13:15:36.546Z,2.30
2022-10-22T13:18:05.953Z,2.13
2022-10-22T13:20:37.298Z,2.22
2022-10-22T13:23:05.917Z,2.80
2022-10-22T13:25:35.129Z,2.40
2022-10-22T13:28:02.442Z,2.57
2022-10-22T13:30:31.274Z,2.70
2022-10-22T13:33:00.521Z,2.42
2022-10-22T13:35:28.952Z,2.65
2022-10-22T13:37:56.279Z,2.50
2022-10-22T13:40:23.512Z,2.77
2022-10-22T13:42:51.044Z,2.55
2022-10-22T13:45:18.607Z,2.75
2022-10-22T13:47:47.227Z,2.40
2022-10-22T13:50:16.190Z,2.92
2022-10-22T13:52:45.381Z,2.67
2022-10-22T13:55:14.081Z,3.00
2022-10-22T13:57:41.385Z,2.95
2022-10-22T14:00:10.258Z,2.40
2022-10-22T14:02:39.490Z,2.70
2022-10-22T14:05:09.500Z,2.47
2022-10-22T14:07:37.335Z,2.05
2022-10-22T14:10:07.507Z,2.40
2022-10-22T14:12:34.741Z,2.08
2022-10-22T14:15:02.089Z,2.10
2022-10-22T14:17:29.434Z,2.00
2022-10-22T14:19:56.749Z,2.33
2022-10-22T14:22:26.222Z,2.53
2022-10-22T14:24:54.296Z,2.20
2022-10-22T14:27:21.675Z,2.28
2022-10-22T14:29:48.961Z,2.00
2022-10-22T14:32:20.254Z,2.20
2022-10-22T14:34:47.707Z,2.08
2022-10-22T14:37:19.738Z,2.20
2022-10-22T14:39:51.966Z,3.40
2022-10-22T14:42:20.099Z,1.90
2022-10-22T14:44:47.555Z,2.63
2022-10-22T14:47:14.914Z,1.95
2022-10-22T14:49:42.284Z,2.60
2022-10-22T14:52:11.785Z,2.67
2022-10-22T14:54:41.521Z,2.43
2022-10-22T14:57:11.431Z,2.08
2022-10-22T14:59:38.684Z,2.60
2022-10-22T15:02:06.023Z,2.33
2022-10-22T15:04:33.393Z,2.40
2022-10-22T15:07:00.657Z,2.03
2022-10-22T15:09:27.887Z,2.45
2022-10-22T15:11:55.144Z,2.55
2022-10-22T15:14:22.365Z,2.65
2022-10-22T15:16:49.651Z,2.70
2022-10-22T15:19:16.943Z,2.83
2022-10-22T15:21:44.194Z,2.35
2022-10-22T15:24:11.411Z,2.60
2022-10-22T15:26:38.688Z,2.28
2022-10-22T15:29:06.244Z,2.60
2022-10-22T15:32:05.919Z,2.40
2022-10-22T15:34:34.654Z,1.95
2022-10-22T15:37:03.316Z,2.22
2022-10-22T15:39:30.683Z,2.05
2022-10-22T15:41:58.868Z,1.77
2022-10-22T15:44:27.191Z,2.40
2022-10-22T15:46:57.666Z,2.60
2022-10-22T15:49:26.397Z,2.10
2022-10-22T15:51:53.762Z,1.95
2022-10-22T15:54:22.544Z,2.28
2022-10-22T15:56:49.877Z,1.90
2022-10-22T15:59:17.741Z,2.53
2022-10-22T16:01:45.183Z,2.67
2022-10-22T16:04:12.623Z,3.30
2022-10-22T16:06:41.687Z,3.10
2022-10-22T16:09:10.088Z,2.40
2022-10-22T16:11:37.542Z,2.40
2022-10-22T16:14:05.333Z,3.20
2022-10-22T16:16:34.292Z,2.40
2022-10-22T16:19:01.567Z,2.40
2022-10-22T16:21:29.317Z,2.43
2022-10-22T16:23:56.505Z,2.65
2022-10-22T16:26:23.799Z,2.70
2022-10-22T16:28:51.341Z,2.63
2022-10-22T16:31:19.801Z,2.92
2022-10-22T16:33:50.037Z,3.70
2022-10-22T16:36:18.908Z,3.50
2022-10-22T16:38:46.917Z,3.20
2022-10-22T16:41:18.527Z,3.15
2022-10-22T16:43:49.662Z,3.33
2022-10-22T16:46:18.121Z,2.63
2022-10-22T16:48:52.803Z,3.33
2022-10-22T16:51:21.180Z,2.55
2022-10-22T16:53:48.628Z,2.60
2022-10-22T16:56:16.685Z,3.33
2022-10-22T16:58:44.629Z,2.70
2022-10-22T17:01:14.908Z,3.00
2022-10-22T17:03:45.233Z,3.40
2022-10-22T17:06:12.519Z,7.25
2022-10-22T17:08:40.995Z,10.20
2022-10-22T17:11:08.835Z,3.20
2022-10-22T17:13:36.405Z,3.25
2022-10-22T17:16:07.868Z,3.38
2022-10-22T17:18:36.101Z,4.18
2022-10-22T17:21:04.764Z,3.75
2022-10-22T17:23:32.144Z,3.83
2022-10-22T17:26:06.186Z,3.95
2022-10-22T17:28:34.119Z,3.53
2022-10-22T17:31:04.186Z,4.10
2022-10-22T17:33:31.874Z,4.85
2022-10-22T17:35:59.213Z,5.50
2022-10-22T17:38:26.508Z,4.72
2022-10-22T17:40:54.020Z,7.35
2022-10-22T17:43:21.445Z,6.68
2022-10-22T17:45:48.769Z,5.43
2022-10-22T17:48:16.019Z,5.10
2022-10-22T17:50:46.958Z,5.45
2022-10-22T17:53:16.990Z,5.03
2022-10-22T17:55:44.244Z,5.43
2022-10-22T17:58:11.482Z,5.28
2022-10-22T18:00:38.825Z,9.50
2022-10-22T18:03:06.119Z,9.18
2022-10-22T18:05:34.045Z,5.65
2022-10-22T18:08:05.624Z,5.60
2022-10-22T18:10:39.616Z,5.10
2022-10-22T18:13:07.039Z,6.03
2022-10-22T18:15:36.325Z,5.70
2022-10-22T18:18:04.188Z,5.25
2022-10-22T18:20:31.796Z,5.03
2022-10-22T18:22:59.041Z,5.28
2022-10-22T18:25:26.502Z,4.50
2022-10-22T18:27:53.750Z,5.55
2022-10-22T18:30:20.981Z,5.47
2022-10-22T18:32:48.295Z,7.03
2022-10-22T18:35:15.655Z,7.38
2022-10-22T18:37:43.197Z,8.53
2022-10-22T18:40:14.480Z,7.70
2022-10-22T18:42:42.576Z,6.55
2022-10-22T18:45:12.004Z,6.10
2022-10-22T18:47:42.394Z,5.95
2022-10-22T18:50:10.354Z,6.60
2022-10-22T18:52:37.594Z,5.97
2022-10-22T18:55:05.310Z,6.35
2022-10-22T18:57:32.617Z,7.20
2022-10-22T18:59:59.844Z,6.47
2022-10-22T19:02:27.274Z,7.10
2022-10-22T19:04:54.623Z,7.07
2022-10-22T19:07:21.905Z,7.18
2022-10-22T19:09:49.250Z,13.43
2022-10-22T19:12:16.608Z,7.57
2022-10-22T19:14:43.899Z,7.00
2022-10-22T19:17:11.288Z,6.68
2022-10-22T19:19:38.563Z,6.75
2022-10-22T19:22:05.820Z,6.32
2022-10-22T19:24:33.126Z,6.72
2022-10-22T19:27:00.399Z,6.57
2022-10-22T19:29:27.770Z,6.80
2022-10-22T19:31:55.150Z,6.43
2022-10-22T19:34:22.451Z,6.70
2022-10-22T19:36:51.767Z,5.50
2022-10-22T19:39:19.234Z,7.17
2022-10-22T19:41:46.586Z,7.07
2022-10-22T19:44:13.942Z,6.50
2022-10-22T19:46:41.212Z,6.22
2022-10-22T19:49:08.466Z,6.38
2022-10-22T19:51:35.833Z,6.30
2022-10-22T19:54:08.145Z,6.32
2022-10-22T19:56:37.760Z,6.90
2022-10-22T19:59:08.293Z,7.13
2022-10-22T20:01:35.760Z,6.95
2022-10-22T20:04:03.298Z,6.77
2022-10-22T20:06:31.382Z,7.72
2022-10-22T20:08:58.824Z,7.50
2022-10-22T20:11:27.822Z,6.85
2022-10-22T20:13:56.623Z,7.15
2022-10-22T20:16:25.102Z,7.10
2022-10-22T20:18:52.831Z,7.03
2022-10-22T20:21:21.184Z,7.10
2022-10-22T20:23:48.967Z,7.38
2022-10-22T20:26:16.276Z,7.97
2022-10-22T20:28:43.503Z,7.43
2022-10-22T20:31:15.577Z,8.05
2022-10-22T20:33:42.891Z,8.38
2022-10-22T20:36:19.121Z,8.13
2022-10-22T20:38:48.278Z,10.05
2022-10-22T20:41:24.811Z,9.77
2022-10-22T20:43:52.665Z,8.00
2022-10-22T20:46:24.438Z,8.13
2022-10-22T20:48:55.844Z,8.52
2022-10-22T20:51:23.219Z,7.72
2022-10-22T20:53:50.741Z,8.60
2022-10-22T20:56:18.725Z,8.13
2022-10-22T20:58:48.669Z,8.07
2022-10-22T21:01:24.154Z,8.75
2022-10-22T21:03:52.421Z,8.23
2022-10-22T21:06:23.315Z,8.20
2022-10-22T21:08:51.738Z,7.93
2022-10-22T21:11:19.969Z,7.43
2022-10-22T21:13:47.377Z,8.40
2022-10-22T21:16:15.322Z,7.40
2022-10-22T21:18:42.597Z,8.33
2022-10-22T21:21:11.825Z,8.10
2022-10-22T21:23:39.614Z,7.85
2022-10-22T21:26:07.061Z,7.78
2022-10-22T21:28:35.671Z,7.63
2022-10-22T21:31:07.356Z,8.30
2022-10-22T21:33:38.548Z,8.93
2022-10-22T21:36:06.707Z,8.65
2022-10-22T21:38:34.133Z,8.02
2022-10-22T21:41:04.785Z,8.43
2022-10-22T21:43:32.011Z,8.23
2022-10-22T21:46:09.567Z,8.32
2022-10-22T21:48:37.573Z,8.15
2022-10-22T21:51:16.076Z,8.02
2022-10-22T21:53:43.491Z,8.13
2022-10-22T21:56:15.386Z,8.37
2022-10-22T21:58:42.669Z,8.88
2022-10-22T22:01:10.086Z,8.15
2022-10-22T22:03:37.401Z,8.93
2022-10-22T22:06:05.911Z,8.52
2022-10-22T22:08:34.136Z,7.63
2022-10-22T22:11:08.993Z,8.80
2022-10-22T22:13:36.322Z,8.80
2022-10-22T22:16:08.434Z,9.13
2022-10-22T22:18:36.315Z,8.95
2022-10-22T22:21:05.259Z,10.23
2022-10-22T22:23:32.691Z,9.52
2022-10-22T22:26:00.637Z,9.27
2022-10-22T22:28:29.316Z,7.97
2022-10-22T22:30:56.847Z,10.90
2022-10-22T22:33:24.090Z,11.03
2022-10-22T22:35:51.337Z,9.60
2022-10-22T22:38:18.678Z,10.35
2022-10-22T22:40:45.934Z,9.35
2022-10-22T22:43:13.238Z,9.30
2022-10-22T22:45:40.893Z,9.03
2022-10-22T22:48:08.576Z,8.65
2022-10-22T22:50:36.914Z,8.70
2022-10-22T22:53:04.361Z,8.20
2022-10-22T22:55:32.079Z,8.43
2022-10-22T22:57:59.318Z,8.00
2022-10-22T23:00:26.665Z,8.45
2022-10-22T23:02:55.398Z,8.60
2022-10-22T23:05:22.630Z,8.57
2022-10-22T23:07:49.889Z,8.10
2022-10-22T23:10:17.212Z,8.77
2022-10-22T23:12:44.679Z,7.47
2022-10-22T23:15:12.083Z,9.10
2022-10-22T23:17:39.327Z,8.63
2022-10-22T23:20:06.937Z,8.48
2022-10-22T23:22:34.221Z,8.90
2022-10-22T23:25:01.523Z,8.07
2022-10-22T23:27:28.866Z,7.43
2022-10-22T23:29:56.087Z,8.25
2022-10-22T23:32:23.322Z,7.88
2022-10-22T23:34:50.596Z,7.90
2022-10-22T23:37:17.930Z,8.32
2022-10-22T23:39:45.180Z,7.93
2022-10-22T23:42:12.433Z,7.82
2022-10-22T23:44:39.685Z,8.10
2022-10-22T23:47:06.961Z,8.20
2022-10-22T23:49:34.517Z,8.50
2022-10-22T23:52:01.800Z,7.57
2022-10-22T23:54:29.082Z,8.25
2022-10-22T23:56:56.359Z,8.35
2022-10-22T23:59:23.679Z,7.57
